メインページ
METAR-TAF:

METAR-TAF

空港 :

Kirsch Municipal Airport

Sturgis, ミシガン州, アメリカ合衆国

緯度: 41-48-46N, 経度: 085-26-21W, 海抜: 282m

現時点の気象観測

当レポートは21分前の10:55(UTC)に作成
無風
気温 -8°C
湿度 85%
気圧 1026 hPa
視程: 16.1km
高度2700ftの雲は散在している

METAR: KIRS 231055Z AUTO 00000KT 10SM SCT027 M08/M10 A3029 RMK AO2 T10811099

時間: 06:16 (11:16 UTC)


TAF: 見つかりません

4,000以上の空港の気象観測と天気予報(METAR報とTAF報)

利用可能な観測所は地図上に黄色い丸と赤い丸で示す。

丸の上にカーソルを重ねると観測所名を参照できる。

次にクリックすると気象観測と天気予報を参照できる。

マップの切り替え:黒色「×」印の緑ボタンをクリックして拡大、「-」印の緑ボタンをクリックして縮小、緑色の三角印をクリックして隣りの地図に切り替え


METAR-TAF: